sensor_id;sensor_type;location;lat;lon;timestamp;pressure;altitude;pressure_sealevel;temperature;humidity
37856;BME280;23694;43.274;26.924;2022-08-18T00:02:11;98357.63;;;25.40;47.35
37856;BME280;23694;43.274;26.924;2022-08-18T00:04:39;98347.72;;;25.40;46.74
37856;BME280;23694;43.274;26.924;2022-08-18T00:07:09;98342.38;;;25.40;46.50
37856;BME280;23694;43.274;26.924;2022-08-18T00:09:37;98350.00;;;25.43;46.78
37856;BME280;23694;43.274;26.924;2022-08-18T00:12:08;98351.25;;;25.41;46.26
37856;BME280;23694;43.274;26.924;2022-08-18T00:14:37;98346.31;;;25.31;46.65
37856;BME280;23694;43.274;26.924;2022-08-18T00:17:03;98357.84;;;25.32;46.33
37856;BME280;23694;43.274;26.924;2022-08-18T00:19:29;98353.13;;;25.27;46.34
37856;BME280;23694;43.274;26.924;2022-08-18T00:21:56;98351.28;;;25.27;46.26
37856;BME280;23694;43.274;26.924;2022-08-18T00:24:24;98355.56;;;25.35;45.88
37856;BME280;23694;43.274;26.924;2022-08-18T00:26:51;98350.41;;;25.40;45.71
37856;BME280;23694;43.274;26.924;2022-08-18T00:29:17;98351.25;;;25.41;46.11
37856;BME280;23694;43.274;26.924;2022-08-18T00:31:43;98355.34;;;25.43;45.89
37856;BME280;23694;43.274;26.924;2022-08-18T00:34:09;98355.13;;;25.45;45.54
37856;BME280;23694;43.274;26.924;2022-08-18T00:36:35;98349.81;;;25.38;45.61
37856;BME280;23694;43.274;26.924;2022-08-18T00:39:02;98356.16;;;25.44;45.92
37856;BME280;23694;43.274;26.924;2022-08-18T00:41:29;98364.47;;;25.29;48.50
37856;BME280;23694;43.274;26.924;2022-08-18T00:43:55;98359.63;;;25.00;49.71
37856;BME280;23694;43.274;26.924;2022-08-18T00:46:29;98356.97;;;24.80;50.39
37856;BME280;23694;43.274;26.924;2022-08-18T00:48:56;98353.69;;;24.78;49.99
37856;BME280;23694;43.274;26.924;2022-08-18T00:53:55;98355.31;;;24.85;48.71
37856;BME280;23694;43.274;26.924;2022-08-18T00:56:27;98358.16;;;24.97;48.22
37856;BME280;23694;43.274;26.924;2022-08-18T00:59:00;98357.78;;;25.00;48.33
37856;BME280;23694;43.274;26.924;2022-08-18T01:01:31;98361.06;;;25.02;47.73
37856;BME280;23694;43.274;26.924;2022-08-18T01:04:26;98362.34;;;24.73;50.04
37856;BME280;23694;43.274;26.924;2022-08-18T01:07:01;98369.56;;;24.59;50.90
37856;BME280;23694;43.274;26.924;2022-08-18T01:09:29;98373.28;;;24.52;51.65
37856;BME280;23694;43.274;26.924;2022-08-18T01:11:56;98378.03;;;24.30;51.76
37856;BME280;23694;43.274;26.924;2022-08-18T01:14:22;98382.53;;;24.16;52.36
37856;BME280;23694;43.274;26.924;2022-08-18T01:16:49;98380.88;;;24.09;52.30
37856;BME280;23694;43.274;26.924;2022-08-18T01:19:35;98386.22;;;24.09;52.73
37856;BME280;23694;43.274;26.924;2022-08-18T01:24:50;98372.44;;;24.12;52.81
37856;BME280;23694;43.274;26.924;2022-08-18T01:27:35;98375.13;;;24.18;52.63
37856;BME280;23694;43.274;26.924;2022-08-18T01:30:05;98365.66;;;24.36;52.09
37856;BME280;23694;43.274;26.924;2022-08-18T01:32:36;98373.69;;;24.42;52.22
37856;BME280;23694;43.274;26.924;2022-08-18T01:35:04;98367.53;;;24.42;52.39
37856;BME280;23694;43.274;26.924;2022-08-18T01:37:34;98374.31;;;24.51;52.17
37856;BME280;23694;43.274;26.924;2022-08-18T01:40:02;98376.56;;;24.47;52.12
37856;BME280;23694;43.274;26.924;2022-08-18T01:42:31;98372.03;;;24.54;51.69
37856;BME280;23694;43.274;26.924;2022-08-18T01:44:57;98374.69;;;24.61;51.30
37856;BME280;23694;43.274;26.924;2022-08-18T01:47:23;98367.28;;;24.63;50.94
37856;BME280;23694;43.274;26.924;2022-08-18T01:49:50;98376.53;;;24.67;51.22
37856;BME280;23694;43.274;26.924;2022-08-18T01:52:20;98369.34;;;24.67;51.52
37856;BME280;23694;43.274;26.924;2022-08-18T01:54:47;98369.78;;;24.71;51.04
37856;BME280;23694;43.274;26.924;2022-08-18T01:57:14;98372.22;;;24.66;51.23
37856;BME280;23694;43.274;26.924;2022-08-18T01:59:41;98366.06;;;24.72;50.51
37856;BME280;23694;43.274;26.924;2022-08-18T02:02:09;98368.91;;;24.71;50.92
37856;BME280;23694;43.274;26.924;2022-08-18T02:04:40;98363.78;;;24.69;50.85
37856;BME280;23694;43.274;26.924;2022-08-18T02:07:09;98361.09;;;24.69;50.39
37856;BME280;23694;43.274;26.924;2022-08-18T02:09:37;98355.72;;;24.69;50.09
37856;BME280;23694;43.274;26.924;2022-08-18T02:12:05;98358.63;;;24.67;49.78
37856;BME280;23694;43.274;26.924;2022-08-18T02:14:36;98361.09;;;24.69;48.95
37856;BME280;23694;43.274;26.924;2022-08-18T02:17:04;98356.78;;;24.75;48.95
37856;BME280;23694;43.274;26.924;2022-08-18T02:19:38;98363.38;;;24.72;49.04
37856;BME280;23694;43.274;26.924;2022-08-18T02:22:06;98366.66;;;24.67;48.99
37856;BME280;23694;43.274;26.924;2022-08-18T02:24:34;98361.94;;;24.63;49.10
37856;BME280;23694;43.274;26.924;2022-08-18T02:27:00;98363.97;;;24.67;48.84
37856;BME280;23694;43.274;26.924;2022-08-18T02:29:27;98363.38;;;24.65;48.81
37856;BME280;23694;43.274;26.924;2022-08-18T02:31:53;98375.13;;;24.71;48.67
37856;BME280;23694;43.274;26.924;2022-08-18T02:34:19;98368.97;;;24.44;51.21
37856;BME280;23694;43.274;26.924;2022-08-18T02:36:45;98369.56;;;24.26;52.64
37856;BME280;23694;43.274;26.924;2022-08-18T02:39:12;98365.84;;;24.08;53.13
37856;BME280;23694;43.274;26.924;2022-08-18T02:41:38;98384.59;;;24.21;53.13
37856;BME280;23694;43.274;26.924;2022-08-18T02:44:06;98380.06;;;24.15;53.26
37856;BME280;23694;43.274;26.924;2022-08-18T02:46:32;98380.25;;;24.13;53.05
37856;BME280;23694;43.274;26.924;2022-08-18T02:48:59;98384.94;;;24.04;52.88
37856;BME280;23694;43.274;26.924;2022-08-18T02:51:25;98382.72;;;24.15;53.59
37856;BME280;23694;43.274;26.924;2022-08-18T02:53:52;98393.03;;;24.18;53.71
37856;BME280;23694;43.274;26.924;2022-08-18T02:56:21;98394.06;;;24.23;53.68
37856;BME280;23694;43.274;26.924;2022-08-18T02:59:02;98398.81;;;24.28;53.84
37856;BME280;23694;43.274;26.924;2022-08-18T03:01:31;98400.88;;;24.32;53.01
37856;BME280;23694;43.274;26.924;2022-08-18T03:03:59;98402.13;;;24.37;52.22
37856;BME280;23694;43.274;26.924;2022-08-18T03:06:27;98398.00;;;24.34;52.05
37856;BME280;23694;43.274;26.924;2022-08-18T03:08:54;98397.16;;;24.40;51.84
37856;BME280;23694;43.274;26.924;2022-08-18T03:11:22;98402.09;;;24.50;51.30
37856;BME280;23694;43.274;26.924;2022-08-18T03:13:49;98400.25;;;24.44;51.88
37856;BME280;23694;43.274;26.924;2022-08-18T03:16:16;98401.91;;;24.45;51.48
37856;BME280;23694;43.274;26.924;2022-08-18T03:18:43;98407.06;;;24.46;51.41
37856;BME280;23694;43.274;26.924;2022-08-18T03:21:13;98406.03;;;24.41;51.08
37856;BME280;23694;43.274;26.924;2022-08-18T03:23:39;98405.41;;;24.45;50.42
37856;BME280;23694;43.274;26.924;2022-08-18T03:26:07;98406.44;;;24.51;50.53
37856;BME280;23694;43.274;26.924;2022-08-18T03:28:41;98407.25;;;24.51;50.09
37856;BME280;23694;43.274;26.924;2022-08-18T03:31:08;98407.03;;;24.53;50.44
37856;BME280;23694;43.274;26.924;2022-08-18T03:33:35;98411.16;;;24.49;50.34
37856;BME280;23694;43.274;26.924;2022-08-18T03:36:07;98405.19;;;24.53;49.41
37856;BME280;23694;43.274;26.924;2022-08-18T03:38:34;98412.41;;;24.59;49.42
37856;BME280;23694;43.274;26.924;2022-08-18T03:41:00;98415.06;;;24.59;49.38
37856;BME280;23694;43.274;26.924;2022-08-18T03:43:26;98416.31;;;24.63;49.51
37856;BME280;23694;43.274;26.924;2022-08-18T03:45:53;98417.97;;;24.71;49.33
37856;BME280;23694;43.274;26.924;2022-08-18T03:48:20;98414.88;;;24.74;49.85
37856;BME280;23694;43.274;26.924;2022-08-18T03:50:46;98423.31;;;24.84;49.10
37856;BME280;23694;43.274;26.924;2022-08-18T03:53:13;98420.41;;;24.92;48.71
37856;BME280;23694;43.274;26.924;2022-08-18T03:55:40;98417.72;;;25.12;48.05
37856;BME280;23694;43.274;26.924;2022-08-18T03:58:06;98416.16;;;25.49;46.96
37856;BME280;23694;43.274;26.924;2022-08-18T04:00:37;98420.31;;;25.90;46.24
37856;BME280;23694;43.274;26.924;2022-08-18T04:03:03;98424.06;;;26.20;45.16
37856;BME280;23694;43.274;26.924;2022-08-18T04:05:29;98429.53;;;26.39;44.55
37856;BME280;23694;43.274;26.924;2022-08-18T04:07:55;98428.03;;;26.43;44.17
37856;BME280;23694;43.274;26.924;2022-08-18T04:10:25;98434.13;;;26.57;43.59
37856;BME280;23694;43.274;26.924;2022-08-18T04:12:51;98434.28;;;26.37;44.32
37856;BME280;23694;43.274;26.924;2022-08-18T04:15:17;98432.16;;;26.14;44.84
37856;BME280;23694;43.274;26.924;2022-08-18T04:17:43;98443.19;;;25.92;45.27
37856;BME280;23694;43.274;26.924;2022-08-18T04:20:12;98437.69;;;25.81;45.71
37856;BME280;23694;43.274;26.924;2022-08-18T04:22:38;98437.56;;;26.07;45.33
37856;BME280;23694;43.274;26.924;2022-08-18T04:25:06;98446.03;;;26.92;43.67
37856;BME280;23694;43.274;26.924;2022-08-18T04:27:34;98445.88;;;27.67;41.63
37856;BME280;23694;43.274;26.924;2022-08-18T04:30:01;98441.81;;;28.24;40.34
37856;BME280;23694;43.274;26.924;2022-08-18T04:32:29;98441.00;;;28.89;38.80
37856;BME280;23694;43.274;26.924;2022-08-18T04:34:56;98438.38;;;29.52;38.05
37856;BME280;23694;43.274;26.924;2022-08-18T04:37:23;98448.88;;;30.17;36.19
37856;BME280;23694;43.274;26.924;2022-08-18T04:39:49;98443.97;;;30.59;35.29
37856;BME280;23694;43.274;26.924;2022-08-18T04:42:15;98445.94;;;31.19;34.66
37856;BME280;23694;43.274;26.924;2022-08-18T04:44:41;98443.47;;;31.78;33.77
37856;BME280;23694;43.274;26.924;2022-08-18T04:47:07;98452.31;;;32.17;33.13
37856;BME280;23694;43.274;26.924;2022-08-18T04:49:34;98450.22;;;32.52;32.25
37856;BME280;23694;43.274;26.924;2022-08-18T04:52:04;98452.22;;;32.98;31.78
37856;BME280;23694;43.274;26.924;2022-08-18T04:54:48;98450.66;;;33.55;30.43
37856;BME280;23694;43.274;26.924;2022-08-18T04:57:17;98449.75;;;33.86;30.20
37856;BME280;23694;43.274;26.924;2022-08-18T04:59:45;98463.41;;;34.32;29.15
37856;BME280;23694;43.274;26.924;2022-08-18T05:02:12;98461.56;;;34.78;28.48
37856;BME280;23694;43.274;26.924;2022-08-18T05:04:41;98465.91;;;35.05;28.20
37856;BME280;23694;43.274;26.924;2022-08-18T05:07:09;98469.72;;;35.19;27.74
37856;BME280;23694;43.274;26.924;2022-08-18T05:09:39;98475.63;;;35.51;27.98
37856;BME280;23694;43.274;26.924;2022-08-18T05:12:07;98465.97;;;35.89;27.09
37856;BME280;23694;43.274;26.924;2022-08-18T05:14:34;98479.34;;;36.35;26.59
37856;BME280;23694;43.274;26.924;2022-08-18T05:17:01;98476.06;;;36.72;25.76
37856;BME280;23694;43.274;26.924;2022-08-18T05:19:29;98473.06;;;37.08;25.45
37856;BME280;23694;43.274;26.924;2022-08-18T05:21:56;98479.25;;;37.66;24.36
37856;BME280;23694;43.274;26.924;2022-08-18T05:24:24;98478.53;;;38.03;24.14
37856;BME280;23694;43.274;26.924;2022-08-18T05:26:51;98491.16;;;37.99;23.98
37856;BME280;23694;43.274;26.924;2022-08-18T05:29:19;98488.50;;;38.13;23.79
37856;BME280;23694;43.274;26.924;2022-08-18T05:31:47;98487.88;;;38.40;23.63
37856;BME280;23694;43.274;26.924;2022-08-18T05:34:14;98491.50;;;38.54;23.37
37856;BME280;23694;43.274;26.924;2022-08-18T05:39:21;98483.88;;;37.71;24.06
37856;BME280;23694;43.274;26.924;2022-08-18T05:42:00;98480.84;;;37.20;24.93
37856;BME280;23694;43.274;26.924;2022-08-18T05:44:30;98486.75;;;36.69;25.77
37856;BME280;23694;43.274;26.924;2022-08-18T05:47:10;98474.09;;;36.00;26.56
37856;BME280;23694;43.274;26.924;2022-08-18T05:49:37;98480.56;;;35.29;26.99
37856;BME280;23694;43.274;26.924;2022-08-18T05:52:13;98484.97;;;34.74;28.49
37856;BME280;23694;43.274;26.924;2022-08-18T05:54:49;98487.31;;;34.10;29.53
37856;BME280;23694;43.274;26.924;2022-08-18T05:57:48;98483.47;;;33.43;30.46
37856;BME280;23694;43.274;26.924;2022-08-18T06:00:18;98474.91;;;33.19;31.27
37856;BME280;23694;43.274;26.924;2022-08-18T06:02:54;98476.09;;;32.96;31.61
37856;BME280;23694;43.274;26.924;2022-08-18T06:05:29;98475.41;;;32.79;32.13
37856;BME280;23694;43.274;26.924;2022-08-18T06:08:00;98469.00;;;32.58;32.42
37856;BME280;23694;43.274;26.924;2022-08-18T06:10:27;98468.06;;;32.47;32.55
37856;BME280;23694;43.274;26.924;2022-08-18T06:12:59;98470.03;;;32.25;32.83
37856;BME280;23694;43.274;26.924;2022-08-18T06:32:11;98486.84;;;31.06;36.06
37856;BME280;23694;43.274;26.924;2022-08-18T06:37:26;98492.56;;;31.65;35.16
37856;BME280;23694;43.274;26.924;2022-08-18T06:39:55;98488.59;;;31.90;34.41
37856;BME280;23694;43.274;26.924;2022-08-18T06:42:25;98490.97;;;32.08;33.81
37856;BME280;23694;43.274;26.924;2022-08-18T06:45:08;98484.59;;;31.97;33.99
37856;BME280;23694;43.274;26.924;2022-08-18T06:47:59;98478.72;;;31.62;34.89
37856;BME280;23694;43.274;26.924;2022-08-18T06:50:51;98482.00;;;32.07;34.33
37856;BME280;23694;43.274;26.924;2022-08-18T06:53:18;98479.44;;;32.23;33.61
37856;BME280;23694;43.274;26.924;2022-08-18T06:55:47;98479.00;;;32.04;33.94
37856;BME280;23694;43.274;26.924;2022-08-18T07:03:20;98480.97;;;30.76;36.47
37856;BME280;23694;43.274;26.924;2022-08-18T07:13:56;98485.47;;;31.81;34.17
37856;BME280;23694;43.274;26.924;2022-08-18T07:16:31;98482.91;;;31.14;35.49
37856;BME280;23694;43.274;26.924;2022-08-18T07:19:14;98489.22;;;31.36;35.43
37856;BME280;23694;43.274;26.924;2022-08-18T07:21:42;98496.06;;;31.22;35.96
37856;BME280;23694;43.274;26.924;2022-08-18T07:27:20;98489.34;;;31.68;35.34
37856;BME280;23694;43.274;26.924;2022-08-18T07:32:35;98485.00;;;32.33;34.08
37856;BME280;23694;43.274;26.924;2022-08-18T07:35:05;98488.34;;;31.91;34.16
37856;BME280;23694;43.274;26.924;2022-08-18T07:37:47;98481.66;;;31.99;34.55
37856;BME280;23694;43.274;26.924;2022-08-18T07:43:17;98480.34;;;32.55;33.80
37856;BME280;23694;43.274;26.924;2022-08-18T07:45:46;98475.88;;;32.71;33.33
37856;BME280;23694;43.274;26.924;2022-08-18T07:48:18;98475.16;;;32.81;33.44
37856;BME280;23694;43.274;26.924;2022-08-18T07:53:29;98474.16;;;32.33;33.92
37856;BME280;23694;43.274;26.924;2022-08-18T07:56:22;98479.47;;;32.50;33.79
37856;BME280;23694;43.274;26.924;2022-08-18T08:04:40;98468.16;;;32.58;33.13
37856;BME280;23694;43.274;26.924;2022-08-18T08:10:21;98482.25;;;33.24;31.68
37856;BME280;23694;43.274;26.924;2022-08-18T08:21:31;98467.16;;;33.95;31.87
37856;BME280;23694;43.274;26.924;2022-08-18T08:24:09;98477.22;;;34.05;31.13
37856;BME280;23694;43.274;26.924;2022-08-18T08:31:59;98479.53;;;34.94;29.84
37856;BME280;23694;43.274;26.924;2022-08-18T08:34:33;98479.28;;;34.91;30.04
37856;BME280;23694;43.274;26.924;2022-08-18T08:37:05;98486.06;;;34.48;29.21
37856;BME280;23694;43.274;26.924;2022-08-18T08:39:37;98488.19;;;34.36;28.05
37856;BME280;23694;43.274;26.924;2022-08-18T08:42:36;98487.00;;;33.96;29.17
37856;BME280;23694;43.274;26.924;2022-08-18T08:45:14;98475.88;;;34.02;28.99
37856;BME280;23694;43.274;26.924;2022-08-18T08:53:41;98475.81;;;33.30;30.16
37856;BME280;23694;43.274;26.924;2022-08-18T08:56:13;98475.91;;;33.50;30.20
37856;BME280;23694;43.274;26.924;2022-08-18T08:59:00;98470.66;;;33.86;29.21
37856;BME280;23694;43.274;26.924;2022-08-18T09:07:06;98477.66;;;34.85;27.80
37856;BME280;23694;43.274;26.924;2022-08-18T09:10:33;98469.19;;;34.71;28.02
37856;BME280;23694;43.274;26.924;2022-08-18T09:15:34;98465.91;;;34.44;27.73
37856;BME280;23694;43.274;26.924;2022-08-18T09:23:43;98458.56;;;34.44;28.00
37856;BME280;23694;43.274;26.924;2022-08-18T09:28:53;98458.56;;;35.15;28.15
37856;BME280;23694;43.274;26.924;2022-08-18T09:31:23;98453.59;;;35.48;27.29
37856;BME280;23694;43.274;26.924;2022-08-18T09:36:40;98454.94;;;36.10;27.12
37856;BME280;23694;43.274;26.924;2022-08-18T09:40:16;98443.94;;;36.25;26.16
37856;BME280;23694;43.274;26.924;2022-08-18T09:42:39;98446.88;;;35.95;25.88
37856;BME280;23694;43.274;26.924;2022-08-18T09:45:10;98446.53;;;36.06;
37856;BME280;23694;43.274;26.924;2022-08-18T09:52:58;98442.84;;;35.72;26.08
37856;BME280;23694;43.274;26.924;2022-08-18T09:55:51;98445.34;;;35.63;25.75
37856;BME280;23694;43.274;26.924;2022-08-18T10:01:17;98438.72;;;35.00;26.67
37856;BME280;23694;43.274;26.924;2022-08-18T10:04:46;98442.25;;;34.64;26.48
37856;BME280;23694;43.274;26.924;2022-08-18T10:06:53;98430.84;;;34.73;27.08
37856;BME280;23694;43.274;26.924;2022-08-18T10:14:40;98431.59;;;35.19;26.48
37856;BME280;23694;43.274;26.924;2022-08-18T10:24:59;98435.19;;;34.48;27.49
37856;BME280;23694;43.274;26.924;2022-08-18T10:27:46;98439.75;;;34.27;28.57
37856;BME280;23694;43.274;26.924;2022-08-18T10:32:57;98441.72;;;34.78;26.87
37856;BME280;23694;43.274;26.924;2022-08-18T10:40:39;98442.16;;;33.98;27.88
37856;BME280;23694;43.274;26.924;2022-08-18T10:43:15;98441.91;;;34.15;28.37
37856;BME280;23694;43.274;26.924;2022-08-18T10:45:45;98439.28;;;34.61;28.53
37856;BME280;23694;43.274;26.924;2022-08-18T10:48:26;98438.19;;;34.87;28.05
37856;BME280;23694;43.274;26.924;2022-08-18T10:51:47;98435.16;;;35.04;27.68
37856;BME280;23694;43.274;26.924;2022-08-18T10:53:57;98434.88;;;35.16;27.53
37856;BME280;23694;43.274;26.924;2022-08-18T10:56:32;98438.16;;;34.97;27.99
37856;BME280;23694;43.274;26.924;2022-08-18T11:02:28;98433.28;;;34.79;27.87
37856;BME280;23694;43.274;26.924;2022-08-18T11:05:03;98427.78;;;35.10;27.02
37856;BME280;23694;43.274;26.924;2022-08-18T11:07:31;98427.78;;;35.25;26.55
37856;BME280;23694;43.274;26.924;2022-08-18T11:09:58;98435.16;;;35.19;26.68
37856;BME280;23694;43.274;26.924;2022-08-18T11:24:10;98426.78;;;35.70;26.92
37856;BME280;23694;43.274;26.924;2022-08-18T11:27:03;98421.44;;;35.50;26.49
37856;BME280;23694;43.274;26.924;2022-08-18T11:34:49;98423.75;;;34.97;27.79
37856;BME280;23694;43.274;26.924;2022-08-18T11:37:25;98434.31;;;35.24;27.78
37856;BME280;23694;43.274;26.924;2022-08-18T11:39:59;98429.94;;;35.38;26.96
37856;BME280;23694;43.274;26.924;2022-08-18T11:42:34;98413.84;;;35.42;26.79
37856;BME280;23694;43.274;26.924;2022-08-18T11:45:14;98418.28;;;35.12;26.51
37856;BME280;23694;43.274;26.924;2022-08-18T11:53:49;98415.59;;;34.87;27.76
37856;BME280;23694;43.274;26.924;2022-08-18T12:04:14;98391.13;;;34.61;27.86
37856;BME280;23694;43.274;26.924;2022-08-18T12:11:53;98383.59;;;35.48;26.34
37856;BME280;23694;43.274;26.924;2022-08-18T12:14:24;98387.22;;;35.34;26.63
37856;BME280;23694;43.274;26.924;2022-08-18T12:16:51;98379.09;;;35.03;26.95
37856;BME280;23694;43.274;26.924;2022-08-18T12:19:18;98385.13;;;34.85;27.70
37856;BME280;23694;43.274;26.924;2022-08-18T12:21:56;98381.34;;;34.40;27.60
37856;BME280;23694;43.274;26.924;2022-08-18T12:24:29;98378.09;;;34.33;28.23
37856;BME280;23694;43.274;26.924;2022-08-18T12:26:56;98378.88;;;34.23;28.73
37856;BME280;23694;43.274;26.924;2022-08-18T12:29:23;98368.84;;;34.44;28.10
37856;BME280;23694;43.274;26.924;2022-08-18T12:31:52;98370.75;;;34.49;27.34
37856;BME280;23694;43.274;26.924;2022-08-18T12:34:21;98372.06;;;34.92;27.79
37856;BME280;23694;43.274;26.924;2022-08-18T12:36:55;98374.91;;;35.41;27.32
37856;BME280;23694;43.274;26.924;2022-08-18T12:39:22;98366.91;;;35.60;26.82
37856;BME280;23694;43.274;26.924;2022-08-18T12:41:49;98367.03;;;35.40;26.83
37856;BME280;23694;43.274;26.924;2022-08-18T12:44:15;98362.75;;;35.13;27.11
37856;BME280;23694;43.274;26.924;2022-08-18T12:46:41;98359.28;;;34.87;27.38
37856;BME280;23694;43.274;26.924;2022-08-18T12:49:26;98365.59;;;34.52;28.56
37856;BME280;23694;43.274;26.924;2022-08-18T12:51:52;98356.34;;;34.58;28.06
37856;BME280;23694;43.274;26.924;2022-08-18T12:54:20;98362.84;;;34.68;27.72
37856;BME280;23694;43.274;26.924;2022-08-18T12:56:52;98358.78;;;34.60;27.72
37856;BME280;23694;43.274;26.924;2022-08-18T12:59:19;98373.19;;;34.55;28.25
37856;BME280;23694;43.274;26.924;2022-08-18T13:01:45;98364.22;;;34.45;27.71
37856;BME280;23694;43.274;26.924;2022-08-18T13:04:11;98366.66;;;34.41;28.46
37856;BME280;23694;43.274;26.924;2022-08-18T13:06:43;98372.34;;;34.19;28.21
37856;BME280;23694;43.274;26.924;2022-08-18T13:09:10;98369.06;;;33.97;28.81
37856;BME280;23694;43.274;26.924;2022-08-18T13:11:36;98371.78;;;33.87;28.94
37856;BME280;23694;43.274;26.924;2022-08-18T13:14:02;98374.13;;;33.63;29.13
37856;BME280;23694;43.274;26.924;2022-08-18T13:16:31;98370.84;;;33.56;28.89
37856;BME280;23694;43.274;26.924;2022-08-18T13:18:58;98373.81;;;33.54;29.45
37856;BME280;23694;43.274;26.924;2022-08-18T13:21:25;98375.16;;;33.47;29.49
37856;BME280;23694;43.274;26.924;2022-08-18T13:23:51;98368.91;;;33.46;29.61
37856;BME280;23694;43.274;26.924;2022-08-18T13:26:32;98375.69;;;33.38;29.68
37856;BME280;23694;43.274;26.924;2022-08-18T13:29:01;98369.19;;;33.45;29.35
37856;BME280;23694;43.274;26.924;2022-08-18T13:31:28;98360.81;;;33.56;29.07
37856;BME280;23694;43.274;26.924;2022-08-18T13:33:54;98363.28;;;33.78;29.05
37856;BME280;23694;43.274;26.924;2022-08-18T13:36:22;98369.88;;;33.92;29.29
37856;BME280;23694;43.274;26.924;2022-08-18T13:38:49;98370.72;;;34.23;29.82
37856;BME280;23694;43.274;26.924;2022-08-18T13:41:17;98366.94;;;34.34;29.35
37856;BME280;23694;43.274;26.924;2022-08-18T13:43:44;98371.84;;;34.48;29.64
37856;BME280;23694;43.274;26.924;2022-08-18T13:46:15;98368.03;;;34.59;29.55
37856;BME280;23694;43.274;26.924;2022-08-18T13:48:42;98370.47;;;34.60;29.46
37856;BME280;23694;43.274;26.924;2022-08-18T13:51:10;98375.09;;;34.34;29.78
37856;BME280;23694;43.274;26.924;2022-08-18T13:53:39;98369.91;;;34.13;29.90
37856;BME280;23694;43.274;26.924;2022-08-18T13:56:06;98370.97;;;34.32;30.43
37856;BME280;23694;43.274;26.924;2022-08-18T13:58:34;98371.28;;;34.46;29.93
37856;BME280;23694;43.274;26.924;2022-08-18T14:01:03;98372.09;;;34.46;29.81
37856;BME280;23694;43.274;26.924;2022-08-18T14:03:31;98366.13;;;34.39;29.51
37856;BME280;23694;43.274;26.924;2022-08-18T14:05:57;98359.56;;;34.05;29.88
37856;BME280;23694;43.274;26.924;2022-08-18T14:08:28;98366.38;;;34.17;30.21
37856;BME280;23694;43.274;26.924;2022-08-18T14:10:57;98353.03;;;34.26;29.61
37856;BME280;23694;43.274;26.924;2022-08-18T14:13:24;98356.31;;;34.13;29.10
37856;BME280;23694;43.274;26.924;2022-08-18T14:15:52;98359.03;;;34.08;29.96
37856;BME280;23694;43.274;26.924;2022-08-18T14:18:19;98353.03;;;33.90;30.07
37856;BME280;23694;43.274;26.924;2022-08-18T14:20:45;98361.19;;;33.95;30.04
37856;BME280;23694;43.274;26.924;2022-08-18T14:23:30;98358.75;;;33.89;29.31
37856;BME280;23694;43.274;26.924;2022-08-18T14:26:14;98350.03;;;33.82;28.23
37856;BME280;23694;43.274;26.924;2022-08-18T14:28:59;98351.88;;;33.71;28.44
37856;BME280;23694;43.274;26.924;2022-08-18T14:31:25;98351.31;;;33.59;28.74
37856;BME280;23694;43.274;26.924;2022-08-18T14:33:51;98354.56;;;33.61;28.97
37856;BME280;23694;43.274;26.924;2022-08-18T14:36:18;98354.03;;;33.69;28.77
37856;BME280;23694;43.274;26.924;2022-08-18T14:38:44;98358.75;;;33.84;28.75
37856;BME280;23694;43.274;26.924;2022-08-18T14:41:12;98353.59;;;33.97;28.48
37856;BME280;23694;43.274;26.924;2022-08-18T14:43:39;98360.66;;;33.98;28.60
37856;BME280;23694;43.274;26.924;2022-08-18T14:46:06;98356.78;;;33.79;28.69
37856;BME280;23694;43.274;26.924;2022-08-18T14:48:32;98353.22;;;33.68;28.69
37856;BME280;23694;43.274;26.924;2022-08-18T14:50:59;98352.66;;;33.56;28.95
37856;BME280;23694;43.274;26.924;2022-08-18T14:53:28;98349.63;;;33.43;28.74
37856;BME280;23694;43.274;26.924;2022-08-18T14:55:56;98342.47;;;33.21;29.10
37856;BME280;23694;43.274;26.924;2022-08-18T14:58:25;98352.22;;;33.17;29.06
37856;BME280;23694;43.274;26.924;2022-08-18T15:00:54;98342.16;;;33.13;29.27
37856;BME280;23694;43.274;26.924;2022-08-18T15:03:22;98343.50;;;33.10;29.31
37856;BME280;23694;43.274;26.924;2022-08-18T15:05:50;98341.31;;;33.07;29.62
37856;BME280;23694;43.274;26.924;2022-08-18T15:08:16;98348.66;;;33.12;29.69
37856;BME280;23694;43.274;26.924;2022-08-18T15:10:44;98342.41;;;33.11;29.48
37856;BME280;23694;43.274;26.924;2022-08-18T15:13:10;98341.31;;;33.07;30.32
37856;BME280;23694;43.274;26.924;2022-08-18T15:15:37;98342.63;;;32.99;29.88
37856;BME280;23694;43.274;26.924;2022-08-18T15:18:03;98339.91;;;32.94;30.51
37856;BME280;23694;43.274;26.924;2022-08-18T15:20:30;98334.47;;;32.94;30.37
37856;BME280;23694;43.274;26.924;2022-08-18T15:23:01;98346.41;;;32.93;30.59
37856;BME280;23694;43.274;26.924;2022-08-18T15:25:47;98343.09;;;32.86;30.75
37856;BME280;23694;43.274;26.924;2022-08-18T15:28:22;98331.94;;;32.77;30.80
37856;BME280;23694;43.274;26.924;2022-08-18T15:30:50;98330.06;;;32.83;31.00
37856;BME280;23694;43.274;26.924;2022-08-18T15:33:17;98328.72;;;32.86;30.76
37856;BME280;23694;43.274;26.924;2022-08-18T15:35:46;98336.09;;;32.95;31.05
37856;BME280;23694;43.274;26.924;2022-08-18T15:38:17;98332.00;;;32.88;30.78
37856;BME280;23694;43.274;26.924;2022-08-18T15:40:52;98330.66;;;32.90;30.68
37856;BME280;23694;43.274;26.924;2022-08-18T15:43:19;98326.84;;;32.86;30.90
37856;BME280;23694;43.274;26.924;2022-08-18T15:45:46;98325.38;;;32.73;31.42
37856;BME280;23694;43.274;26.924;2022-08-18T15:48:14;98330.81;;;32.73;31.18
37856;BME280;23694;43.274;26.924;2022-08-18T15:50:42;98321.28;;;32.66;31.16
37856;BME280;23694;43.274;26.924;2022-08-18T15:53:10;98327.47;;;32.56;31.40
37856;BME280;23694;43.274;26.924;2022-08-18T15:55:38;98328.75;;;32.48;31.91
37856;BME280;23694;43.274;26.924;2022-08-18T15:58:05;98323.50;;;32.37;31.34